sensor_id;sensor_type;location;lat;lon;timestamp;P1;P2;P0
69205;PMS7003;56319;48.920;2.332;2023-06-22T00:01:48;2.25;2.25;2.00
69205;PMS7003;56319;48.920;2.332;2023-06-22T00:04:13;3.00;2.00;2.00
69205;PMS7003;56319;48.920;2.332;2023-06-22T00:06:39;1.50;1.50;1.25
69205;PMS7003;56319;48.920;2.332;2023-06-22T00:09:04;2.00;1.00;1.00
69205;PMS7003;56319;48.920;2.332;2023-06-22T00:11:32;1.50;1.50;1.25
69205;PMS7003;56319;48.920;2.332;2023-06-22T00:13:59;2.50;2.50;2.00
69205;PMS7003;56319;48.920;2.332;2023-06-22T00:16:24;3.00;2.00;2.00
69205;PMS7003;56319;48.920;2.332;2023-06-22T00:18:50;3.00;2.25;2.00
69205;PMS7003;56319;48.920;2.332;2023-06-22T00:21:16;1.00;1.00;1.00
69205;PMS7003;56319;48.920;2.332;2023-06-22T00:23:41;2.00;2.00;1.00
69205;PMS7003;56319;48.920;2.332;2023-06-22T00:26:08;2.00;2.00;1.50
69205;PMS7003;56319;48.920;2.332;2023-06-22T00:28:33;2.00;2.00;1.75
69205;PMS7003;56319;48.920;2.332;2023-06-22T00:30:59;2.00;2.00;2.00
69205;PMS7003;56319;48.920;2.332;2023-06-22T00:33:25;3.25;2.00;2.00
69205;PMS7003;56319;48.920;2.332;2023-06-22T00:35:52;1.50;1.50;1.00
69205;PMS7003;56319;48.920;2.332;2023-06-22T00:38:18;1.25;1.25;1.00
69205;PMS7003;56319;48.920;2.332;2023-06-22T00:40:44;3.00;3.00;2.50
69205;PMS7003;56319;48.920;2.332;2023-06-22T00:43:10;2.00;2.00;2.00
69205;PMS7003;56319;48.920;2.332;2023-06-22T00:45:35;2.00;2.00;1.00
69205;PMS7003;56319;48.920;2.332;2023-06-22T00:48:01;1.50;1.50;1.00
69205;PMS7003;56319;48.920;2.332;2023-06-22T00:50:30;1.00;1.00;1.00
69205;PMS7003;56319;48.920;2.332;2023-06-22T00:53:00;2.25;1.50;1.50
69205;PMS7003;56319;48.920;2.332;2023-06-22T00:55:29;1.50;1.25;1.00
69205;PMS7003;56319;48.920;2.332;2023-06-22T00:57:55;2.00;2.00;2.00
69205;PMS7003;56319;48.920;2.332;2023-06-22T01:00:23;2.00;2.00;1.75
69205;PMS7003;56319;48.920;2.332;2023-06-22T01:02:51;2.75;2.00;2.00
69205;PMS7003;56319;48.920;2.332;2023-06-22T01:05:19;1.75;1.75;1.00
69205;PMS7003;56319;48.920;2.332;2023-06-22T01:07:57;2.00;2.00;2.00
69205;PMS7003;56319;48.920;2.332;2023-06-22T01:13:36;2.75;2.75;1.75
69205;PMS7003;56319;48.920;2.332;2023-06-22T01:16:12;1.75;1.50;1.25
69205;PMS7003;56319;48.920;2.332;2023-06-22T01:18:46;1.00;1.00;1.00
69205;PMS7003;56319;48.920;2.332;2023-06-22T01:21:16;1.25;1.25;1.00
69205;PMS7003;56319;48.920;2.332;2023-06-22T01:27:00;2.00;2.00;2.00
69205;PMS7003;56319;48.920;2.332;2023-06-22T01:29:51;2.00;2.00;2.00
69205;PMS7003;56319;48.920;2.332;2023-06-22T01:35:12;2.00;2.00;1.00
69205;PMS7003;56319;48.920;2.332;2023-06-22T01:37:39;1.00;1.00;1.00
69205;PMS7003;56319;48.920;2.332;2023-06-22T01:40:05;1.00;1.00;1.00
69205;PMS7003;56319;48.920;2.332;2023-06-22T01:42:33;2.00;2.00;1.75
69205;PMS7003;56319;48.920;2.332;2023-06-22T01:45:00;3.25;1.50;1.50
69205;PMS7003;56319;48.920;2.332;2023-06-22T01:47:27;2.75;2.00;1.75
69205;PMS7003;56319;48.920;2.332;2023-06-22T01:49:53;2.00;2.00;2.00
69205;PMS7003;56319;48.920;2.332;2023-06-22T01:52:20;2.00;2.00;1.75
69205;PMS7003;56319;48.920;2.332;2023-06-22T01:54:47;1.00;1.00;1.00
69205;PMS7003;56319;48.920;2.332;2023-06-22T01:57:13;2.50;2.00;1.00
69205;PMS7003;56319;48.920;2.332;2023-06-22T01:59:41;2.00;2.00;2.00
69205;PMS7003;56319;48.920;2.332;2023-06-22T02:02:14;2.25;2.00;2.00
69205;PMS7003;56319;48.920;2.332;2023-06-22T02:04:46;1.00;1.00;1.00
69205;PMS7003;56319;48.920;2.332;2023-06-22T02:07:17;2.00;2.00;1.00
69205;PMS7003;56319;48.920;2.332;2023-06-22T02:09:44;2.00;2.00;1.50
69205;PMS7003;56319;48.920;2.332;2023-06-22T02:12:12;1.50;1.50;1.00
69205;PMS7003;56319;48.920;2.332;2023-06-22T02:14:41;2.00;2.00;1.50
69205;PMS7003;56319;48.920;2.332;2023-06-22T02:17:07;3.00;1.50;1.50
69205;PMS7003;56319;48.920;2.332;2023-06-22T02:19:36;2.25;2.00;2.00
69205;PMS7003;56319;48.920;2.332;2023-06-22T02:22:03;2.00;2.00;1.50
69205;PMS7003;56319;48.920;2.332;2023-06-22T02:24:30;2.75;2.75;2.50
69205;PMS7003;56319;48.920;2.332;2023-06-22T02:26:57;1.25;1.25;1.00
69205;PMS7003;56319;48.920;2.332;2023-06-22T02:29:23;1.00;1.00;1.00
69205;PMS7003;56319;48.920;2.332;2023-06-22T02:31:49;1.50;1.50;1.00
69205;PMS7003;56319;48.920;2.332;2023-06-22T02:34:14;2.00;2.00;1.25
69205;PMS7003;56319;48.920;2.332;2023-06-22T02:36:44;2.50;2.25;2.00
69205;PMS7003;56319;48.920;2.332;2023-06-22T02:42:02;2.00;2.00;1.00
69205;PMS7003;56319;48.920;2.332;2023-06-22T02:44:28;2.75;2.25;2.00
69205;PMS7003;56319;48.920;2.332;2023-06-22T02:46:53;2.00;2.00;1.25
69205;PMS7003;56319;48.920;2.332;2023-06-22T02:49:19;6.00;2.00;2.00
69205;PMS7003;56319;48.920;2.332;2023-06-22T02:51:45;2.25;2.25;2.00
69205;PMS7003;56319;48.920;2.332;2023-06-22T02:54:12;1.25;1.25;1.25
69205;PMS7003;56319;48.920;2.332;2023-06-22T02:56:38;2.00;1.00;1.00
69205;PMS7003;56319;48.920;2.332;2023-06-22T02:59:05;1.00;1.00;1.00
69205;PMS7003;56319;48.920;2.332;2023-06-22T03:01:31;1.50;1.50;1.50
69205;PMS7003;56319;48.920;2.332;2023-06-22T03:04:05;4.00;1.00;1.00
69205;PMS7003;56319;48.920;2.332;2023-06-22T03:06:31;2.00;1.00;1.00
69205;PMS7003;56319;48.920;2.332;2023-06-22T03:08:59;3.75;2.75;2.00
69205;PMS7003;56319;48.920;2.332;2023-06-22T03:11:26;2.00;2.00;2.00
69205;PMS7003;56319;48.920;2.332;2023-06-22T03:13:52;4.00;2.00;1.75
69205;PMS7003;56319;48.920;2.332;2023-06-22T03:16:18;1.00;1.00;1.00
69205;PMS7003;56319;48.920;2.332;2023-06-22T03:18:44;2.00;2.00;1.00
69205;PMS7003;56319;48.920;2.332;2023-06-22T03:21:10;2.00;2.00;1.25
69205;PMS7003;56319;48.920;2.332;2023-06-22T03:23:35;2.00;2.00;1.00
69205;PMS7003;56319;48.920;2.332;2023-06-22T03:26:01;1.25;1.25;1.00
69205;PMS7003;56319;48.920;2.332;2023-06-22T03:28:28;2.00;2.00;1.75
69205;PMS7003;56319;48.920;2.332;2023-06-22T03:30:56;2.00;2.00;2.00
69205;PMS7003;56319;48.920;2.332;2023-06-22T03:33:22;2.00;2.00;2.00
69205;PMS7003;56319;48.920;2.332;2023-06-22T03:35:48;2.00;2.00;1.00
69205;PMS7003;56319;48.920;2.332;2023-06-22T03:38:15;2.00;2.00;1.25
69205;PMS7003;56319;48.920;2.332;2023-06-22T03:40:41;1.25;1.25;1.00
69205;PMS7003;56319;48.920;2.332;2023-06-22T03:43:06;3.50;2.00;1.25
69205;PMS7003;56319;48.920;2.332;2023-06-22T03:45:32;2.00;2.00;1.50
69205;PMS7003;56319;48.920;2.332;2023-06-22T03:47:57;4.00;2.00;1.00
69205;PMS7003;56319;48.920;2.332;2023-06-22T03:50:23;2.00;2.00;2.00
69205;PMS7003;56319;48.920;2.332;2023-06-22T03:52:48;2.00;2.00;1.00
69205;PMS7003;56319;48.920;2.332;2023-06-22T03:55:14;0.00;0.00;0.00
69205;PMS7003;56319;48.920;2.332;2023-06-22T03:57:39;1.25;1.25;1.00
69205;PMS7003;56319;48.920;2.332;2023-06-22T04:00:05;3.00;2.00;2.00
69205;PMS7003;56319;48.920;2.332;2023-06-22T04:02:31;2.00;2.00;2.00
69205;PMS7003;56319;48.920;2.332;2023-06-22T04:04:57;3.25;2.50;1.50
69205;PMS7003;56319;48.920;2.332;2023-06-22T04:07:22;2.50;2.00;1.75
69205;PMS7003;56319;48.920;2.332;2023-06-22T04:09:48;1.00;1.00;1.00
69205;PMS7003;56319;48.920;2.332;2023-06-22T04:12:13;2.50;2.00;2.00
69205;PMS7003;56319;48.920;2.332;2023-06-22T04:14:39;2.75;2.00;1.50
69205;PMS7003;56319;48.920;2.332;2023-06-22T04:17:04;4.00;1.00;1.00
69205;PMS7003;56319;48.920;2.332;2023-06-22T04:19:30;4.00;2.00;2.00
69205;PMS7003;56319;48.920;2.332;2023-06-22T04:21:56;3.00;3.00;2.75
69205;PMS7003;56319;48.920;2.332;2023-06-22T04:24:21;2.00;2.00;1.75
69205;PMS7003;56319;48.920;2.332;2023-06-22T04:26:47;1.00;1.00;1.00
69205;PMS7003;56319;48.920;2.332;2023-06-22T04:29:12;1.00;1.00;1.00
69205;PMS7003;56319;48.920;2.332;2023-06-22T04:31:38;2.50;1.75;1.75
69205;PMS7003;56319;48.920;2.332;2023-06-22T04:34:04;1.25;1.25;1.00
69205;PMS7003;56319;48.920;2.332;2023-06-22T04:36:33;3.00;2.00;1.00
69205;PMS7003;56319;48.920;2.332;2023-06-22T04:39:04;3.00;1.50;1.50
69205;PMS7003;56319;48.920;2.332;2023-06-22T04:41:30;3.50;2.25;2.25
69205;PMS7003;56319;48.920;2.332;2023-06-22T04:44:02;3.00;2.25;2.00
69205;PMS7003;56319;48.920;2.332;2023-06-22T04:46:30;3.75;2.00;1.25
69205;PMS7003;56319;48.920;2.332;2023-06-22T04:48:55;2.00;2.00;2.00
69205;PMS7003;56319;48.920;2.332;2023-06-22T04:51:21;3.00;2.50;2.00
69205;PMS7003;56319;48.920;2.332;2023-06-22T04:53:46;2.00;2.00;2.00
69205;PMS7003;56319;48.920;2.332;2023-06-22T04:56:12;0.00;0.00;0.00
69205;PMS7003;56319;48.920;2.332;2023-06-22T04:58:38;2.25;2.25;2.00
69205;PMS7003;56319;48.920;2.332;2023-06-22T05:01:03;2.00;2.00;2.00
69205;PMS7003;56319;48.920;2.332;2023-06-22T05:03:29;1.50;1.50;1.50
69205;PMS7003;56319;48.920;2.332;2023-06-22T05:05:55;2.00;2.00;1.25
69205;PMS7003;56319;48.920;2.332;2023-06-22T05:08:20;2.00;2.00;1.25
69205;PMS7003;56319;48.920;2.332;2023-06-22T05:10:46;2.00;2.00;1.00
69205;PMS7003;56319;48.920;2.332;2023-06-22T05:13:11;2.00;2.00;1.75
69205;PMS7003;56319;48.920;2.332;2023-06-22T05:15:37;2.75;2.75;2.00
69205;PMS7003;56319;48.920;2.332;2023-06-22T05:18:05;2.25;2.00;1.50
69205;PMS7003;56319;48.920;2.332;2023-06-22T05:20:31;2.00;2.00;1.00
69205;PMS7003;56319;48.920;2.332;2023-06-22T05:22:58;2.75;1.50;1.00
69205;PMS7003;56319;48.920;2.332;2023-06-22T05:25:24;3.00;3.00;2.00
69205;PMS7003;56319;48.920;2.332;2023-06-22T05:27:50;2.00;2.00;1.50
69205;PMS7003;56319;48.920;2.332;2023-06-22T05:30:16;2.00;2.00;1.50
69205;PMS7003;56319;48.920;2.332;2023-06-22T05:32:43;4.00;3.00;2.50
69205;PMS7003;56319;48.920;2.332;2023-06-22T05:35:09;2.75;2.75;2.00
69205;PMS7003;56319;48.920;2.332;2023-06-22T05:37:34;2.50;2.50;2.00
69205;PMS7003;56319;48.920;2.332;2023-06-22T05:40:00;2.25;2.25;2.00
69205;PMS7003;56319;48.920;2.332;2023-06-22T05:42:26;3.00;3.00;2.00
69205;PMS7003;56319;48.920;2.332;2023-06-22T05:44:52;2.75;2.00;2.00
69205;PMS7003;56319;48.920;2.332;2023-06-22T05:47:18;2.50;2.50;2.25
69205;PMS7003;56319;48.920;2.332;2023-06-22T05:49:44;3.75;2.25;2.00
69205;PMS7003;56319;48.920;2.332;2023-06-22T05:52:09;3.00;3.00;2.50
69205;PMS7003;56319;48.920;2.332;2023-06-22T05:54:35;2.00;2.00;2.00
69205;PMS7003;56319;48.920;2.332;2023-06-22T05:57:01;2.75;2.25;2.00
69205;PMS7003;56319;48.920;2.332;2023-06-22T05:59:26;3.25;2.75;2.00
69205;PMS7003;56319;48.920;2.332;2023-06-22T06:01:52;2.50;2.50;2.00
69205;PMS7003;56319;48.920;2.332;2023-06-22T06:04:18;3.25;3.25;3.00
69205;PMS7003;56319;48.920;2.332;2023-06-22T06:06:44;5.50;3.50;3.00
69205;PMS7003;56319;48.920;2.332;2023-06-22T06:09:10;6.75;4.50;4.00
69205;PMS7003;56319;48.920;2.332;2023-06-22T06:11:37;6.50;5.75;5.00
69205;PMS7003;56319;48.920;2.332;2023-06-22T06:14:03;6.75;6.75;5.00
69205;PMS7003;56319;48.920;2.332;2023-06-22T06:16:28;7.00;5.50;4.75
69205;PMS7003;56319;48.920;2.332;2023-06-22T06:18:54;6.50;5.50;4.00
69205;PMS7003;56319;48.920;2.332;2023-06-22T06:21:21;6.75;6.75;6.25
69205;PMS7003;56319;48.920;2.332;2023-06-22T06:23:46;7.00;7.00;6.00
69205;PMS7003;56319;48.920;2.332;2023-06-22T06:26:12;8.00;6.75;5.00
69205;PMS7003;56319;48.920;2.332;2023-06-22T06:28:38;6.00;6.00;5.00
69205;PMS7003;56319;48.920;2.332;2023-06-22T06:31:03;7.25;7.00;7.00
69205;PMS7003;56319;48.920;2.332;2023-06-22T06:33:32;9.00;7.25;6.00
69205;PMS7003;56319;48.920;2.332;2023-06-22T06:35:58;11.75;10.25;8.50
69205;PMS7003;56319;48.920;2.332;2023-06-22T06:38:26;14.25;13.00;10.25
69205;PMS7003;56319;48.920;2.332;2023-06-22T06:40:52;16.50;15.25;9.00
69205;PMS7003;56319;48.920;2.332;2023-06-22T06:43:17;17.50;13.00;10.00
69205;PMS7003;56319;48.920;2.332;2023-06-22T06:45:43;16.00;15.00;10.00
69205;PMS7003;56319;48.920;2.332;2023-06-22T06:48:09;14.50;13.00;10.25
69205;PMS7003;56319;48.920;2.332;2023-06-22T06:50:35;16.25;15.00;11.00
69205;PMS7003;56319;48.920;2.332;2023-06-22T06:53:00;14.50;13.25;9.50
69205;PMS7003;56319;48.920;2.332;2023-06-22T06:55:26;18.75;14.50;11.00
69205;PMS7003;56319;48.920;2.332;2023-06-22T06:57:52;15.50;15.00;10.75
69205;PMS7003;56319;48.920;2.332;2023-06-22T07:00:18;15.75;15.75;10.75
69205;PMS7003;56319;48.920;2.332;2023-06-22T07:02:44;20.25;18.25;12.75
69205;PMS7003;56319;48.920;2.332;2023-06-22T07:05:11;15.75;15.75;11.00
69205;PMS7003;56319;48.920;2.332;2023-06-22T07:07:37;18.25;17.00;12.00
69205;PMS7003;56319;48.920;2.332;2023-06-22T07:10:04;22.75;20.25;14.25
69205;PMS7003;56319;48.920;2.332;2023-06-22T07:12:30;17.75;15.00;11.00
69205;PMS7003;56319;48.920;2.332;2023-06-22T07:17:41;19.75;18.75;14.00
69205;PMS7003;56319;48.920;2.332;2023-06-22T07:20:07;13.25;13.25;8.25
69205;PMS7003;56319;48.920;2.332;2023-06-22T07:22:35;15.00;15.00;11.25
69205;PMS7003;56319;48.920;2.332;2023-06-22T07:25:02;18.00;18.00;12.75
69205;PMS7003;56319;48.920;2.332;2023-06-22T07:27:34;18.75;17.00;13.50
69205;PMS7003;56319;48.920;2.332;2023-06-22T07:30:03;19.00;17.50;13.75
69205;PMS7003;56319;48.920;2.332;2023-06-22T07:32:29;15.75;15.00;12.50
69205;PMS7003;56319;48.920;2.332;2023-06-22T07:34:55;17.50;15.25;10.75
69205;PMS7003;56319;48.920;2.332;2023-06-22T07:37:20;16.50;15.75;11.75
69205;PMS7003;56319;48.920;2.332;2023-06-22T07:39:46;15.50;15.50;13.25
69205;PMS7003;56319;48.920;2.332;2023-06-22T07:42:11;23.50;20.75;15.75
69205;PMS7003;56319;48.920;2.332;2023-06-22T07:44:37;22.50;19.25;14.50
69205;PMS7003;56319;48.920;2.332;2023-06-22T07:47:03;17.50;15.50;12.50
69205;PMS7003;56319;48.920;2.332;2023-06-22T07:49:28;19.75;16.25;12.50
69205;PMS7003;56319;48.920;2.332;2023-06-22T07:51:54;25.50;19.75;12.75
69205;PMS7003;56319;48.920;2.332;2023-06-22T07:54:20;19.75;15.50;10.75
69205;PMS7003;56319;48.920;2.332;2023-06-22T07:56:46;18.00;16.25;11.75
69205;PMS7003;56319;48.920;2.332;2023-06-22T07:59:11;23.00;19.50;13.00
69205;PMS7003;56319;48.920;2.332;2023-06-22T08:01:37;19.25;16.75;12.25
69205;PMS7003;56319;48.920;2.332;2023-06-22T08:04:02;22.50;18.75;14.25
69205;PMS7003;56319;48.920;2.332;2023-06-22T08:06:29;21.25;18.75;15.75
69205;PMS7003;56319;48.920;2.332;2023-06-22T08:08:55;16.75;16.25;12.50
69205;PMS7003;56319;48.920;2.332;2023-06-22T08:11:22;21.50;17.50;13.50
69205;PMS7003;56319;48.920;2.332;2023-06-22T08:13:49;19.00;15.00;11.00
69205;PMS7003;56319;48.920;2.332;2023-06-22T08:16:14;19.00;18.25;12.50
69205;PMS7003;56319;48.920;2.332;2023-06-22T08:18:40;16.00;15.50;12.50
69205;PMS7003;56319;48.920;2.332;2023-06-22T08:21:05;18.75;17.25;13.75
69205;PMS7003;56319;48.920;2.332;2023-06-22T08:23:31;17.50;16.25;12.75
69205;PMS7003;56319;48.920;2.332;2023-06-22T08:25:56;16.50;15.25;11.25
69205;PMS7003;56319;48.920;2.332;2023-06-22T08:28:22;21.25;15.50;10.00
69205;PMS7003;56319;48.920;2.332;2023-06-22T08:30:48;23.50;18.75;12.25
69205;PMS7003;56319;48.920;2.332;2023-06-22T08:33:13;17.25;14.25;11.00
69205;PMS7003;56319;48.920;2.332;2023-06-22T08:35:39;25.50;18.50;15.00
69205;PMS7003;56319;48.920;2.332;2023-06-22T08:38:04;19.00;18.75;14.25
69205;PMS7003;56319;48.920;2.332;2023-06-22T08:40:30;17.75;16.75;12.25
69205;PMS7003;56319;48.920;2.332;2023-06-22T08:42:55;18.75;16.75;13.25
69205;PMS7003;56319;48.920;2.332;2023-06-22T08:45:21;16.50;14.75;10.25
69205;PMS7003;56319;48.920;2.332;2023-06-22T08:47:47;19.00;14.25;11.00
69205;PMS7003;56319;48.920;2.332;2023-06-22T08:50:12;15.75;15.75;11.50
69205;PMS7003;56319;48.920;2.332;2023-06-22T08:52:38;20.25;17.25;12.00
69205;PMS7003;56319;48.920;2.332;2023-06-22T08:55:07;17.50;16.75;12.50
69205;PMS7003;56319;48.920;2.332;2023-06-22T08:57:34;19.25;15.75;11.25
69205;PMS7003;56319;48.920;2.332;2023-06-22T09:00:02;17.00;15.75;10.50
69205;PMS7003;56319;48.920;2.332;2023-06-22T09:02:30;19.75;14.00;11.00
69205;PMS7003;56319;48.920;2.332;2023-06-22T09:04:56;15.00;14.25;10.00
69205;PMS7003;56319;48.920;2.332;2023-06-22T09:07:23;16.25;14.75;10.50
69205;PMS7003;56319;48.920;2.332;2023-06-22T09:09:50;18.50;13.75;11.00
69205;PMS7003;56319;48.920;2.332;2023-06-22T09:12:17;15.50;13.75;11.00
69205;PMS7003;56319;48.920;2.332;2023-06-22T09:14:45;18.00;17.50;13.50
69205;PMS7003;56319;48.920;2.332;2023-06-22T09:17:12;18.50;18.50;11.75
69205;PMS7003;56319;48.920;2.332;2023-06-22T09:19:38;16.50;15.50;11.00
69205;PMS7003;56319;48.920;2.332;2023-06-22T09:22:03;16.75;13.75;11.00
69205;PMS7003;56319;48.920;2.332;2023-06-22T09:24:31;21.50;16.75;12.75
69205;PMS7003;56319;48.920;2.332;2023-06-22T09:26:56;14.25;14.25;12.50
69205;PMS7003;56319;48.920;2.332;2023-06-22T09:29:22;16.00;15.25;12.00
69205;PMS7003;56319;48.920;2.332;2023-06-22T09:31:47;17.00;13.00;11.00
69205;PMS7003;56319;48.920;2.332;2023-06-22T09:34:13;15.50;14.75;10.75
69205;PMS7003;56319;48.920;2.332;2023-06-22T09:36:41;12.75;12.75;9.25
69205;PMS7003;56319;48.920;2.332;2023-06-22T09:39:07;13.25;11.75;9.50
69205;PMS7003;56319;48.920;2.332;2023-06-22T09:41:32;17.25;14.00;9.25
69205;PMS7003;56319;48.920;2.332;2023-06-22T09:43:58;12.75;12.00;8.50
69205;PMS7003;56319;48.920;2.332;2023-06-22T09:46:23;13.50;12.25;9.25
69205;PMS7003;56319;48.920;2.332;2023-06-22T09:48:50;13.50;13.25;8.50
69205;PMS7003;56319;48.920;2.332;2023-06-22T09:51:16;12.50;11.25;9.00
69205;PMS7003;56319;48.920;2.332;2023-06-22T09:53:41;14.00;14.00;10.00
69205;PMS7003;56319;48.920;2.332;2023-06-22T09:56:07;12.75;11.75;8.50
69205;PMS7003;56319;48.920;2.332;2023-06-22T09:58:36;13.75;11.00;8.50
69205;PMS7003;56319;48.920;2.332;2023-06-22T10:01:01;14.50;11.50;9.50
69205;PMS7003;56319;48.920;2.332;2023-06-22T10:03:27;11.00;11.00;8.00
69205;PMS7003;56319;48.920;2.332;2023-06-22T10:05:52;15.00;11.25;9.25
69205;PMS7003;56319;48.920;2.332;2023-06-22T10:08:18;13.25;10.25;8.25
69205;PMS7003;56319;48.920;2.332;2023-06-22T10:10:43;12.75;12.50;10.00
69205;PMS7003;56319;48.920;2.332;2023-06-22T10:13:09;15.00;13.50;10.25
69205;PMS7003;56319;48.920;2.332;2023-06-22T10:15:36;12.75;10.50;8.00
69205;PMS7003;56319;48.920;2.332;2023-06-22T10:18:02;13.25;13.25;10.25
69205;PMS7003;56319;48.920;2.332;2023-06-22T10:20:28;12.75;11.25;8.75
69205;PMS7003;56319;48.920;2.332;2023-06-22T10:22:53;11.75;10.50;8.25
69205;PMS7003;56319;48.920;2.332;2023-06-22T10:25:19;12.25;9.75;8.00
69205;PMS7003;56319;48.920;2.332;2023-06-22T10:27:45;14.50;9.00;7.50
69205;PMS7003;56319;48.920;2.332;2023-06-22T10:30:11;12.50;12.50;9.25
69205;PMS7003;56319;48.920;2.332;2023-06-22T10:32:38;9.00;9.00;7.50
69205;PMS7003;56319;48.920;2.332;2023-06-22T10:35:04;14.75;9.75;8.00
69205;PMS7003;56319;48.920;2.332;2023-06-22T10:37:30;11.00;11.00;8.50
69205;PMS7003;56319;48.920;2.332;2023-06-22T10:39:55;10.00;9.00;7.25
69205;PMS7003;56319;48.920;2.332;2023-06-22T10:42:21;10.75;10.50;8.50
69205;PMS7003;56319;48.920;2.332;2023-06-22T10:44:46;12.50;10.50;8.00
69205;PMS7003;56319;48.920;2.332;2023-06-22T10:47:12;10.25;9.50;7.00
69205;PMS7003;56319;48.920;2.332;2023-06-22T10:49:38;10.75;10.75;8.25
69205;PMS7003;56319;48.920;2.332;2023-06-22T10:52:05;10.25;10.25;7.50
69205;PMS7003;56319;48.920;2.332;2023-06-22T10:54:32;10.00;10.00;7.25
69205;PMS7003;56319;48.920;2.332;2023-06-22T10:56:59;11.00;10.00;8.50
69205;PMS7003;56319;48.920;2.332;2023-06-22T10:59:24;11.25;10.00;8.50
69205;PMS7003;56319;48.920;2.332;2023-06-22T11:01:51;12.50;11.50;8.00
69205;PMS7003;56319;48.920;2.332;2023-06-22T11:04:17;9.25;9.00;7.25
69205;PMS7003;56319;48.920;2.332;2023-06-22T11:06:43;11.50;9.50;7.75
69205;PMS7003;56319;48.920;2.332;2023-06-22T11:09:08;8.75;8.75;7.25
69205;PMS7003;56319;48.920;2.332;2023-06-22T11:11:34;11.00;9.00;7.25
69205;PMS7003;56319;48.920;2.332;2023-06-22T11:13:59;10.75;10.25;7.25
69205;PMS7003;56319;48.920;2.332;2023-06-22T11:16:25;9.00;9.00;7.00
69205;PMS7003;56319;48.920;2.332;2023-06-22T11:18:51;14.75;9.75;8.00
69205;PMS7003;56319;48.920;2.332;2023-06-22T11:21:17;9.00;8.00;7.00
69205;PMS7003;56319;48.920;2.332;2023-06-22T11:23:42;13.00;10.00;8.75
69205;PMS7003;56319;48.920;2.332;2023-06-22T11:26:08;7.50;7.00;6.00
69205;PMS7003;56319;48.920;2.332;2023-06-22T11:28:33;8.25;8.25;7.00
69205;PMS7003;56319;48.920;2.332;2023-06-22T11:30:59;8.75;8.75;7.25
69205;PMS7003;56319;48.920;2.332;2023-06-22T11:33:27;10.00;8.50;7.50
69205;PMS7003;56319;48.920;2.332;2023-06-22T11:35:52;9.25;9.25;7.25
69205;PMS7003;56319;48.920;2.332;2023-06-22T11:38:18;11.25;10.50;8.00
69205;PMS7003;56319;48.920;2.332;2023-06-22T11:40:43;7.75;7.50;6.50
69205;PMS7003;56319;48.920;2.332;2023-06-22T11:43:09;11.25;8.50;7.00
69205;PMS7003;56319;48.920;2.332;2023-06-22T11:45:34;10.75;8.75;7.25
69205;PMS7003;56319;48.920;2.332;2023-06-22T11:48:00;12.50;8.00;7.00
69205;PMS7003;56319;48.920;2.332;2023-06-22T11:50:25;11.00;7.00;6.25
69205;PMS7003;56319;48.920;2.332;2023-06-22T11:52:51;10.00;8.00;7.00
69205;PMS7003;56319;48.920;2.332;2023-06-22T11:55:18;18.25;15.00;12.00
69205;PMS7003;56319;48.920;2.332;2023-06-22T12:00:30;12.25;11.75;10.00
69205;PMS7003;56319;48.920;2.332;2023-06-22T12:02:56;14.50;10.75;8.00
69205;PMS7003;56319;48.920;2.332;2023-06-22T12:05:21;13.50;11.50;9.25
69205;PMS7003;56319;48.920;2.332;2023-06-22T12:07:47;17.75;12.75;10.00
69205;PMS7003;56319;48.920;2.332;2023-06-22T12:10:13;13.50;12.75;11.00
69205;PMS7003;56319;48.920;2.332;2023-06-22T12:12:39;10.50;10.50;8.50
69205;PMS7003;56319;48.920;2.332;2023-06-22T12:15:05;14.75;12.75;10.25
69205;PMS7003;56319;48.920;2.332;2023-06-22T12:17:31;12.75;12.75;10.00
69205;PMS7003;56319;48.920;2.332;2023-06-22T12:19:58;20.75;14.25;11.75
69205;PMS7003;56319;48.920;2.332;2023-06-22T12:22:23;15.25;13.00;10.00
69205;PMS7003;56319;48.920;2.332;2023-06-22T12:24:49;16.50;14.25;11.75
69205;PMS7003;56319;48.920;2.332;2023-06-22T12:27:15;18.50;16.25;12.00
69205;PMS7003;56319;48.920;2.332;2023-06-22T12:29:43;19.75;18.00;13.50
69205;PMS7003;56319;48.920;2.332;2023-06-22T12:32:10;17.50;16.00;11.50
69205;PMS7003;56319;48.920;2.332;2023-06-22T12:34:38;16.50;14.50;12.00
69205;PMS7003;56319;48.920;2.332;2023-06-22T12:37:04;15.50;13.75;11.25
69205;PMS7003;56319;48.920;2.332;2023-06-22T12:39:31;20.25;16.75;12.25
69205;PMS7003;56319;48.920;2.332;2023-06-22T12:41:57;17.00;16.25;12.00
69205;PMS7003;56319;48.920;2.332;2023-06-22T12:44:22;16.25;15.25;11.25
69205;PMS7003;56319;48.920;2.332;2023-06-22T12:46:48;16.75;15.50;13.50
69205;PMS7003;56319;48.920;2.332;2023-06-22T12:49:13;14.00;14.00;11.50
69205;PMS7003;56319;48.920;2.332;2023-06-22T12:51:39;16.50;14.50;11.75
69205;PMS7003;56319;48.920;2.332;2023-06-22T12:54:07;12.25;11.00;9.75
69205;PMS7003;56319;48.920;2.332;2023-06-22T12:56:33;13.50;13.00;10.25
69205;PMS7003;56319;48.920;2.332;2023-06-22T12:58:59;12.25;12.25;10.00
69205;PMS7003;56319;48.920;2.332;2023-06-22T13:01:27;15.50;12.00;10.00
69205;PMS7003;56319;48.920;2.332;2023-06-22T13:03:53;13.25;13.25;9.75
69205;PMS7003;56319;48.920;2.332;2023-06-22T13:06:19;14.00;13.00;9.00
69205;PMS7003;56319;48.920;2.332;2023-06-22T13:08:45;2.75;0.75;0.25
69205;PMS7003;56319;48.920;2.332;2023-06-22T13:11:10;12.50;11.50;10.00
69205;PMS7003;56319;48.920;2.332;2023-06-22T13:13:36;16.00;13.75;11.75
69205;PMS7003;56319;48.920;2.332;2023-06-22T13:16:01;13.25;13.00;11.00
69205;PMS7003;56319;48.920;2.332;2023-06-22T13:18:27;14.25;14.00;11.00
69205;PMS7003;56319;48.920;2.332;2023-06-22T13:20:52;13.50;12.75;10.25
69205;PMS7003;56319;48.920;2.332;2023-06-22T13:23:20;15.00;12.50;10.00
69205;PMS7003;56319;48.920;2.332;2023-06-22T13:25:46;10.00;8.25;6.25
69205;PMS7003;56319;48.920;2.332;2023-06-22T13:28:12;15.00;13.75;11.00
69205;PMS7003;56319;48.920;2.332;2023-06-22T13:30:39;17.50;16.25;13.75
69205;PMS7003;56319;48.920;2.332;2023-06-22T13:33:05;20.75;18.50;15.50
69205;PMS7003;56319;48.920;2.332;2023-06-22T13:35:31;18.50;18.25;14.75
69205;PMS7003;56319;48.920;2.332;2023-06-22T13:37:56;19.25;18.00;14.25
69205;PMS7003;56319;48.920;2.332;2023-06-22T13:40:22;19.25;18.50;15.00
69205;PMS7003;56319;48.920;2.332;2023-06-22T13:42:47;17.50;16.25;13.25
69205;PMS7003;56319;48.920;2.332;2023-06-22T13:45:13;18.00;16.50;13.25
69205;PMS7003;56319;48.920;2.332;2023-06-22T13:47:39;18.75;16.50;11.75
69205;PMS7003;56319;48.920;2.332;2023-06-22T13:50:04;17.00;14.25;11.00
69205;PMS7003;56319;48.920;2.332;2023-06-22T13:52:30;18.50;17.25;12.00
69205;PMS7003;56319;48.920;2.332;2023-06-22T13:54:56;15.00;13.25;10.25
69205;PMS7003;56319;48.920;2.332;2023-06-22T13:57:21;16.25;14.25;12.00
69205;PMS7003;56319;48.920;2.332;2023-06-22T13:59:47;15.25;12.25;10.00
69205;PMS7003;56319;48.920;2.332;2023-06-22T14:02:12;14.50;11.00;9.00
69205;PMS7003;56319;48.920;2.332;2023-06-22T14:04:38;16.00;14.25;9.75
69205;PMS7003;56319;48.920;2.332;2023-06-22T14:07:04;15.50;14.75;11.00
69205;PMS7003;56319;48.920;2.332;2023-06-22T14:09:30;13.50;13.00;9.00
69205;PMS7003;56319;48.920;2.332;2023-06-22T14:11:55;14.25;12.25;9.75
69205;PMS7003;56319;48.920;2.332;2023-06-22T14:14:21;13.50;11.00;10.00
69205;PMS7003;56319;48.920;2.332;2023-06-22T14:16:47;18.00;14.25;10.00
69205;PMS7003;56319;48.920;2.332;2023-06-22T14:19:16;13.25;12.25;10.25